sensor_id;sensor_type;location;lat;lon;timestamp;temperature;humidity
39503;DHT22;26970;49.900;10.774;2023-08-20T00:00:24;23.70;99.90
39503;DHT22;26970;49.900;10.774;2023-08-20T00:02:54;23.70;99.90
39503;DHT22;26970;49.900;10.774;2023-08-20T00:05:20;23.70;99.90
39503;DHT22;26970;49.900;10.774;2023-08-20T00:07:46;23.80;99.90
39503;DHT22;26970;49.900;10.774;2023-08-20T00:10:11;23.80;99.90
39503;DHT22;26970;49.900;10.774;2023-08-20T00:12:37;23.80;99.90
39503;DHT22;26970;49.900;10.774;2023-08-20T00:15:03;23.70;99.90
39503;DHT22;26970;49.900;10.774;2023-08-20T00:17:35;23.60;99.90
39503;DHT22;26970;49.900;10.774;2023-08-20T00:20:02;23.60;99.90
39503;DHT22;26970;49.900;10.774;2023-08-20T00:22:34;23.50;99.90
39503;DHT22;26970;49.900;10.774;2023-08-20T00:25:00;23.50;99.90
39503;DHT22;26970;49.900;10.774;2023-08-20T00:27:26;23.60;99.90
39503;DHT22;26970;49.900;10.774;2023-08-20T00:29:51;23.60;99.90
39503;DHT22;26970;49.900;10.774;2023-08-20T00:32:17;23.70;99.90
39503;DHT22;26970;49.900;10.774;2023-08-20T00:34:43;23.70;99.90
39503;DHT22;26970;49.900;10.774;2023-08-20T00:37:08;23.70;99.90
39503;DHT22;26970;49.900;10.774;2023-08-20T00:39:34;23.70;99.90
39503;DHT22;26970;49.900;10.774;2023-08-20T00:41:59;23.70;99.90
39503;DHT22;26970;49.900;10.774;2023-08-20T00:44:25;23.70;99.90
39503;DHT22;26970;49.900;10.774;2023-08-20T00:46:51;23.80;99.90
39503;DHT22;26970;49.900;10.774;2023-08-20T00:49:17;24.00;99.90
39503;DHT22;26970;49.900;10.774;2023-08-20T00:51:43;24.00;99.90
39503;DHT22;26970;49.900;10.774;2023-08-20T00:54:10;24.10;99.90
39503;DHT22;26970;49.900;10.774;2023-08-20T00:56:36;24.20;99.90
39503;DHT22;26970;49.900;10.774;2023-08-20T00:59:04;24.10;99.90
39503;DHT22;26970;49.900;10.774;2023-08-20T01:01:30;24.00;99.90
39503;DHT22;26970;49.900;10.774;2023-08-20T01:03:56;24.00;99.90
39503;DHT22;26970;49.900;10.774;2023-08-20T01:08:58;23.80;99.90
39503;DHT22;26970;49.900;10.774;2023-08-20T01:11:30;23.70;99.90
39503;DHT22;26970;49.900;10.774;2023-08-20T01:13:59;23.60;99.90
39503;DHT22;26970;49.900;10.774;2023-08-20T01:16:26;23.50;99.90
39503;DHT22;26970;49.900;10.774;2023-08-20T01:18:51;23.40;99.90
39503;DHT22;26970;49.900;10.774;2023-08-20T01:21:39;23.40;99.90
39503;DHT22;26970;49.900;10.774;2023-08-20T01:29:27;23.20;99.90
39503;DHT22;26970;49.900;10.774;2023-08-20T01:31:54;23.10;99.90
39503;DHT22;26970;49.900;10.774;2023-08-20T01:34:21;23.10;99.90
39503;DHT22;26970;49.900;10.774;2023-08-20T01:36:47;23.10;99.90
39503;DHT22;26970;49.900;10.774;2023-08-20T01:39:12;23.00;99.90
39503;DHT22;26970;49.900;10.774;2023-08-20T01:41:39;23.00;99.90
39503;DHT22;26970;49.900;10.774;2023-08-20T01:44:04;23.00;99.90
39503;DHT22;26970;49.900;10.774;2023-08-20T01:46:30;23.00;99.90
39503;DHT22;26970;49.900;10.774;2023-08-20T01:48:55;22.90;99.90
39503;DHT22;26970;49.900;10.774;2023-08-20T01:51:21;22.80;99.90
39503;DHT22;26970;49.900;10.774;2023-08-20T01:53:46;22.80;99.90
39503;DHT22;26970;49.900;10.774;2023-08-20T01:56:13;22.70;99.90
39503;DHT22;26970;49.900;10.774;2023-08-20T01:58:39;22.60;99.90
39503;DHT22;26970;49.900;10.774;2023-08-20T02:01:05;22.40;99.90
39503;DHT22;26970;49.900;10.774;2023-08-20T02:03:30;22.50;99.90
39503;DHT22;26970;49.900;10.774;2023-08-20T02:05:56;22.40;99.90
39503;DHT22;26970;49.900;10.774;2023-08-20T02:08:22;22.20;99.90
39503;DHT22;26970;49.900;10.774;2023-08-20T02:10:48;22.10;99.90
39503;DHT22;26970;49.900;10.774;2023-08-20T02:13:13;22.20;99.90
39503;DHT22;26970;49.900;10.774;2023-08-20T02:15:39;22.00;99.90
39503;DHT22;26970;49.900;10.774;2023-08-20T02:18:04;22.00;99.90
39503;DHT22;26970;49.900;10.774;2023-08-20T02:20:30;21.90;99.90
39503;DHT22;26970;49.900;10.774;2023-08-20T02:22:56;21.90;99.90
39503;DHT22;26970;49.900;10.774;2023-08-20T02:25:22;21.90;99.90
39503;DHT22;26970;49.900;10.774;2023-08-20T02:27:48;21.80;99.90
39503;DHT22;26970;49.900;10.774;2023-08-20T02:30:13;21.90;99.90
39503;DHT22;26970;49.900;10.774;2023-08-20T02:32:39;21.80;99.90
39503;DHT22;26970;49.900;10.774;2023-08-20T02:35:05;21.90;99.90
39503;DHT22;26970;49.900;10.774;2023-08-20T02:37:32;21.80;99.90
39503;DHT22;26970;49.900;10.774;2023-08-20T02:39:57;21.90;99.90
39503;DHT22;26970;49.900;10.774;2023-08-20T02:42:23;21.90;99.90
39503;DHT22;26970;49.900;10.774;2023-08-20T02:44:48;21.90;99.90
39503;DHT22;26970;49.900;10.774;2023-08-20T02:47:14;21.90;99.90
39503;DHT22;26970;49.900;10.774;2023-08-20T02:49:40;21.90;99.90
39503;DHT22;26970;49.900;10.774;2023-08-20T02:52:05;21.90;99.90
39503;DHT22;26970;49.900;10.774;2023-08-20T02:54:31;21.90;99.90
39503;DHT22;26970;49.900;10.774;2023-08-20T02:56:58;21.90;99.90
39503;DHT22;26970;49.900;10.774;2023-08-20T02:59:24;21.90;99.90
39503;DHT22;26970;49.900;10.774;2023-08-20T03:01:49;21.90;99.90
39503;DHT22;26970;49.900;10.774;2023-08-20T03:04:15;21.90;99.90
39503;DHT22;26970;49.900;10.774;2023-08-20T03:06:40;21.90;99.90
39503;DHT22;26970;49.900;10.774;2023-08-20T03:09:06;21.90;99.90
39503;DHT22;26970;49.900;10.774;2023-08-20T03:11:31;21.80;99.90
39503;DHT22;26970;49.900;10.774;2023-08-20T03:13:57;21.80;99.90
39503;DHT22;26970;49.900;10.774;2023-08-20T03:16:22;21.80;99.90
39503;DHT22;26970;49.900;10.774;2023-08-20T03:18:48;21.80;99.90
39503;DHT22;26970;49.900;10.774;2023-08-20T03:21:13;21.80;99.90
39503;DHT22;26970;49.900;10.774;2023-08-20T03:23:39;21.80;99.90
39503;DHT22;26970;49.900;10.774;2023-08-20T03:26:05;21.80;99.90
39503;DHT22;26970;49.900;10.774;2023-08-20T03:28:30;22.00;99.90
39503;DHT22;26970;49.900;10.774;2023-08-20T03:31:00;21.80;99.90
39503;DHT22;26970;49.900;10.774;2023-08-20T03:33:26;21.70;99.90
39503;DHT22;26970;49.900;10.774;2023-08-20T03:35:51;21.60;99.90
39503;DHT22;26970;49.900;10.774;2023-08-20T03:38:17;21.40;99.90
39503;DHT22;26970;49.900;10.774;2023-08-20T03:40:42;21.40;99.90
39503;DHT22;26970;49.900;10.774;2023-08-20T03:43:08;21.40;99.90
39503;DHT22;26970;49.900;10.774;2023-08-20T03:45:34;21.40;99.90
39503;DHT22;26970;49.900;10.774;2023-08-20T03:47:59;21.40;99.90
39503;DHT22;26970;49.900;10.774;2023-08-20T03:50:25;21.40;99.90
39503;DHT22;26970;49.900;10.774;2023-08-20T03:52:50;21.50;99.90
39503;DHT22;26970;49.900;10.774;2023-08-20T03:55:16;21.50;99.90
39503;DHT22;26970;49.900;10.774;2023-08-20T03:57:42;21.50;99.90
39503;DHT22;26970;49.900;10.774;2023-08-20T04:00:08;21.50;99.90
39503;DHT22;26970;49.900;10.774;2023-08-20T04:02:35;21.50;99.90
39503;DHT22;26970;49.900;10.774;2023-08-20T04:05:00;21.50;99.90
39503;DHT22;26970;49.900;10.774;2023-08-20T04:07:26;21.50;99.90
39503;DHT22;26970;49.900;10.774;2023-08-20T04:09:51;21.50;99.90
39503;DHT22;26970;49.900;10.774;2023-08-20T04:12:17;21.50;99.90
39503;DHT22;26970;49.900;10.774;2023-08-20T04:14:42;21.50;99.90
39503;DHT22;26970;49.900;10.774;2023-08-20T04:17:08;21.50;99.90
39503;DHT22;26970;49.900;10.774;2023-08-20T04:19:33;21.40;99.90
39503;DHT22;26970;49.900;10.774;2023-08-20T04:21:59;21.40;99.90
39503;DHT22;26970;49.900;10.774;2023-08-20T04:24:24;21.30;99.90
39503;DHT22;26970;49.900;10.774;2023-08-20T04:26:50;21.30;99.90
39503;DHT22;26970;49.900;10.774;2023-08-20T04:29:15;21.30;99.90
39503;DHT22;26970;49.900;10.774;2023-08-20T04:31:41;21.30;99.90
39503;DHT22;26970;49.900;10.774;2023-08-20T04:34:07;21.30;99.90
39503;DHT22;26970;49.900;10.774;2023-08-20T04:36:33;21.40;99.90
39503;DHT22;26970;49.900;10.774;2023-08-20T04:38:58;21.40;99.90
39503;DHT22;26970;49.900;10.774;2023-08-20T04:41:24;21.40;99.90
39503;DHT22;26970;49.900;10.774;2023-08-20T04:43:50;21.50;99.90
39503;DHT22;26970;49.900;10.774;2023-08-20T04:46:15;21.60;99.90
39503;DHT22;26970;49.900;10.774;2023-08-20T04:48:41;21.60;99.90
39503;DHT22;26970;49.900;10.774;2023-08-20T04:51:07;21.40;99.90
39503;DHT22;26970;49.900;10.774;2023-08-20T04:53:32;21.30;99.90
39503;DHT22;26970;49.900;10.774;2023-08-20T04:55:58;21.20;99.90
39503;DHT22;26970;49.900;10.774;2023-08-20T04:58:24;21.30;99.90
39503;DHT22;26970;49.900;10.774;2023-08-20T05:00:50;21.20;99.90
39503;DHT22;26970;49.900;10.774;2023-08-20T05:03:15;21.20;99.90
39503;DHT22;26970;49.900;10.774;2023-08-20T05:05:41;21.30;99.90
39503;DHT22;26970;49.900;10.774;2023-08-20T05:08:06;21.40;99.90
39503;DHT22;26970;49.900;10.774;2023-08-20T05:10:36;21.40;99.90
39503;DHT22;26970;49.900;10.774;2023-08-20T05:13:02;21.40;99.90
39503;DHT22;26970;49.900;10.774;2023-08-20T05:15:27;21.50;99.90
39503;DHT22;26970;49.900;10.774;2023-08-20T05:17:53;21.60;99.90
39503;DHT22;26970;49.900;10.774;2023-08-20T05:20:18;21.60;99.90
39503;DHT22;26970;49.900;10.774;2023-08-20T05:22:44;21.80;99.90
39503;DHT22;26970;49.900;10.774;2023-08-20T05:25:09;21.90;99.90
39503;DHT22;26970;49.900;10.774;2023-08-20T05:27:35;22.00;99.90
39503;DHT22;26970;49.900;10.774;2023-08-20T05:30:00;21.90;99.90
39503;DHT22;26970;49.900;10.774;2023-08-20T05:32:26;22.00;99.90
39503;DHT22;26970;49.900;10.774;2023-08-20T05:34:51;22.00;99.90
39503;DHT22;26970;49.900;10.774;2023-08-20T05:37:17;22.20;99.90
39503;DHT22;26970;49.900;10.774;2023-08-20T05:39:43;22.30;99.90
39503;DHT22;26970;49.900;10.774;2023-08-20T05:42:09;22.50;99.90
39503;DHT22;26970;49.900;10.774;2023-08-20T05:44:35;22.60;99.90
39503;DHT22;26970;49.900;10.774;2023-08-20T05:47:01;22.60;99.90
39503;DHT22;26970;49.900;10.774;2023-08-20T05:49:27;22.60;99.90
39503;DHT22;26970;49.900;10.774;2023-08-20T05:51:52;22.60;99.90
39503;DHT22;26970;49.900;10.774;2023-08-20T05:54:18;22.70;99.90
39503;DHT22;26970;49.900;10.774;2023-08-20T05:56:43;22.80;99.90
39503;DHT22;26970;49.900;10.774;2023-08-20T05:59:09;22.90;99.90
39503;DHT22;26970;49.900;10.774;2023-08-20T06:01:35;22.90;99.90
39503;DHT22;26970;49.900;10.774;2023-08-20T06:04:00;22.90;99.90
39503;DHT22;26970;49.900;10.774;2023-08-20T06:06:27;23.00;99.90
39503;DHT22;26970;49.900;10.774;2023-08-20T06:08:52;23.10;99.90
39503;DHT22;26970;49.900;10.774;2023-08-20T06:11:19;23.30;99.90
39503;DHT22;26970;49.900;10.774;2023-08-20T06:13:44;23.50;99.90
39503;DHT22;26970;49.900;10.774;2023-08-20T06:16:10;23.60;99.90
39503;DHT22;26970;49.900;10.774;2023-08-20T06:18:35;23.60;99.90
39503;DHT22;26970;49.900;10.774;2023-08-20T06:21:02;23.70;99.90
39503;DHT22;26970;49.900;10.774;2023-08-20T06:23:28;23.80;99.90
39503;DHT22;26970;49.900;10.774;2023-08-20T06:25:54;24.00;99.90
39503;DHT22;26970;49.900;10.774;2023-08-20T06:28:19;23.90;99.90
39503;DHT22;26970;49.900;10.774;2023-08-20T06:30:45;23.80;99.90
39503;DHT22;26970;49.900;10.774;2023-08-20T06:33:11;23.90;99.90
39503;DHT22;26970;49.900;10.774;2023-08-20T06:35:37;24.00;99.90
39503;DHT22;26970;49.900;10.774;2023-08-20T06:38:03;24.10;99.90
39503;DHT22;26970;49.900;10.774;2023-08-20T06:40:28;24.30;99.90
39503;DHT22;26970;49.900;10.774;2023-08-20T06:42:54;24.30;99.90
39503;DHT22;26970;49.900;10.774;2023-08-20T06:45:19;24.30;99.90
39503;DHT22;26970;49.900;10.774;2023-08-20T06:47:45;24.50;99.90
39503;DHT22;26970;49.900;10.774;2023-08-20T06:50:10;24.60;99.90
39503;DHT22;26970;49.900;10.774;2023-08-20T06:52:36;24.60;99.90
39503;DHT22;26970;49.900;10.774;2023-08-20T06:55:02;24.80;99.90
39503;DHT22;26970;49.900;10.774;2023-08-20T06:57:27;24.90;99.90
39503;DHT22;26970;49.900;10.774;2023-08-20T06:59:53;25.00;99.90
39503;DHT22;26970;49.900;10.774;2023-08-20T07:02:18;25.20;99.90
39503;DHT22;26970;49.900;10.774;2023-08-20T07:04:44;25.50;99.90
39503;DHT22;26970;49.900;10.774;2023-08-20T07:07:09;25.70;99.90
39503;DHT22;26970;49.900;10.774;2023-08-20T07:09:35;25.80;99.90
39503;DHT22;26970;49.900;10.774;2023-08-20T07:12:03;25.90;99.90
39503;DHT22;26970;49.900;10.774;2023-08-20T07:14:29;25.90;99.90
39503;DHT22;26970;49.900;10.774;2023-08-20T07:16:55;25.80;99.90
39503;DHT22;26970;49.900;10.774;2023-08-20T07:19:20;26.00;99.90
39503;DHT22;26970;49.900;10.774;2023-08-20T07:21:46;26.00;99.90
39503;DHT22;26970;49.900;10.774;2023-08-20T07:24:11;26.30;99.90
39503;DHT22;26970;49.900;10.774;2023-08-20T07:26:37;26.40;99.90
39503;DHT22;26970;49.900;10.774;2023-08-20T07:29:02;26.60;99.90
39503;DHT22;26970;49.900;10.774;2023-08-20T07:31:30;26.50;99.90
39503;DHT22;26970;49.900;10.774;2023-08-20T07:33:57;26.60;99.90
39503;DHT22;26970;49.900;10.774;2023-08-20T07:36:24;26.60;99.90
39503;DHT22;26970;49.900;10.774;2023-08-20T07:38:50;26.60;99.90
39503;DHT22;26970;49.900;10.774;2023-08-20T07:41:16;26.60;99.90
39503;DHT22;26970;49.900;10.774;2023-08-20T07:43:42;26.80;99.90
39503;DHT22;26970;49.900;10.774;2023-08-20T07:46:08;26.90;99.90
39503;DHT22;26970;49.900;10.774;2023-08-20T07:48:35;27.00;99.90
39503;DHT22;26970;49.900;10.774;2023-08-20T07:51:01;26.90;99.90
39503;DHT22;26970;49.900;10.774;2023-08-20T07:53:27;27.20;99.90
39503;DHT22;26970;49.900;10.774;2023-08-20T07:55:52;27.40;99.90
39503;DHT22;26970;49.900;10.774;2023-08-20T07:58:18;27.50;99.90
39503;DHT22;26970;49.900;10.774;2023-08-20T08:00:43;27.70;99.90
39503;DHT22;26970;49.900;10.774;2023-08-20T08:03:09;27.50;99.90
39503;DHT22;26970;49.900;10.774;2023-08-20T08:05:35;27.50;99.90
39503;DHT22;26970;49.900;10.774;2023-08-20T08:08:01;27.50;99.90
39503;DHT22;26970;49.900;10.774;2023-08-20T08:10:28;27.70;99.90
39503;DHT22;26970;49.900;10.774;2023-08-20T08:12:53;27.70;99.90
39503;DHT22;26970;49.900;10.774;2023-08-20T08:15:19;27.70;99.90
39503;DHT22;26970;49.900;10.774;2023-08-20T08:17:45;27.40;99.90
39503;DHT22;26970;49.900;10.774;2023-08-20T08:20:10;27.40;99.90
39503;DHT22;26970;49.900;10.774;2023-08-20T08:22:36;27.50;99.90
39503;DHT22;26970;49.900;10.774;2023-08-20T08:25:01;27.60;99.90
39503;DHT22;26970;49.900;10.774;2023-08-20T08:27:27;27.70;99.90
39503;DHT22;26970;49.900;10.774;2023-08-20T08:29:52;27.90;99.90
39503;DHT22;26970;49.900;10.774;2023-08-20T08:32:18;28.10;99.90
39503;DHT22;26970;49.900;10.774;2023-08-20T08:34:43;28.20;99.90
39503;DHT22;26970;49.900;10.774;2023-08-20T08:37:09;28.30;99.90
39503;DHT22;26970;49.900;10.774;2023-08-20T08:39:34;28.40;99.90
39503;DHT22;26970;49.900;10.774;2023-08-20T08:42:01;28.20;99.90
39503;DHT22;26970;49.900;10.774;2023-08-20T08:44:32;28.30;99.90
39503;DHT22;26970;49.900;10.774;2023-08-20T08:46:58;28.50;99.90
39503;DHT22;26970;49.900;10.774;2023-08-20T08:49:24;28.40;99.90
39503;DHT22;26970;49.900;10.774;2023-08-20T08:51:51;28.30;99.90
39503;DHT22;26970;49.900;10.774;2023-08-20T08:54:20;28.50;99.90
39503;DHT22;26970;49.900;10.774;2023-08-20T08:56:45;28.70;99.90
39503;DHT22;26970;49.900;10.774;2023-08-20T08:59:11;29.00;99.90
39503;DHT22;26970;49.900;10.774;2023-08-20T09:01:40;29.20;99.90
39503;DHT22;26970;49.900;10.774;2023-08-20T09:04:06;29.20;99.90
39503;DHT22;26970;49.900;10.774;2023-08-20T09:06:51;29.10;99.90
39503;DHT22;26970;49.900;10.774;2023-08-20T09:09:18;29.30;99.90
39503;DHT22;26970;49.900;10.774;2023-08-20T09:11:44;29.10;99.90
39503;DHT22;26970;49.900;10.774;2023-08-20T09:14:29;28.60;99.90
39503;DHT22;26970;49.900;10.774;2023-08-20T09:16:59;28.40;99.90
39503;DHT22;26970;49.900;10.774;2023-08-20T09:19:29;28.20;99.90
39503;DHT22;26970;49.900;10.774;2023-08-20T09:22:00;27.90;99.90
39503;DHT22;26970;49.900;10.774;2023-08-20T09:24:41;27.90;99.90
39503;DHT22;26970;49.900;10.774;2023-08-20T09:27:07;27.80;99.90
39503;DHT22;26970;49.900;10.774;2023-08-20T09:29:43;27.60;99.90
39503;DHT22;26970;49.900;10.774;2023-08-20T09:32:14;27.60;99.90
39503;DHT22;26970;49.900;10.774;2023-08-20T09:34:39;27.50;99.90
39503;DHT22;26970;49.900;10.774;2023-08-20T09:37:09;27.50;99.90
39503;DHT22;26970;49.900;10.774;2023-08-20T09:39:35;27.80;99.90
39503;DHT22;26970;49.900;10.774;2023-08-20T09:42:01;27.80;99.90
39503;DHT22;26970;49.900;10.774;2023-08-20T09:44:33;27.80;99.90
39503;DHT22;26970;49.900;10.774;2023-08-20T09:47:01;27.60;99.90
39503;DHT22;26970;49.900;10.774;2023-08-20T09:49:29;27.70;99.90
39503;DHT22;26970;49.900;10.774;2023-08-20T09:51:57;27.90;99.90
39503;DHT22;26970;49.900;10.774;2023-08-20T09:57:07;28.00;99.90
39503;DHT22;26970;49.900;10.774;2023-08-20T09:59:36;28.10;99.90
39503;DHT22;26970;49.900;10.774;2023-08-20T10:02:02;28.20;99.90
39503;DHT22;26970;49.900;10.774;2023-08-20T10:04:29;28.20;99.90
39503;DHT22;26970;49.900;10.774;2023-08-20T10:06:55;28.50;99.90
39503;DHT22;26970;49.900;10.774;2023-08-20T10:09:22;28.50;99.90
39503;DHT22;26970;49.900;10.774;2023-08-20T10:11:49;28.60;99.90
39503;DHT22;26970;49.900;10.774;2023-08-20T10:14:14;28.70;99.90
39503;DHT22;26970;49.900;10.774;2023-08-20T10:16:40;28.70;99.90
39503;DHT22;26970;49.900;10.774;2023-08-20T10:19:06;28.60;99.90
39503;DHT22;26970;49.900;10.774;2023-08-20T10:21:32;28.50;99.90
39503;DHT22;26970;49.900;10.774;2023-08-20T10:24:03;28.50;99.90
39503;DHT22;26970;49.900;10.774;2023-08-20T10:26:29;28.30;99.90
39503;DHT22;26970;49.900;10.774;2023-08-20T10:31:58;28.20;99.90
39503;DHT22;26970;49.900;10.774;2023-08-20T10:34:38;28.30;99.90
39503;DHT22;26970;49.900;10.774;2023-08-20T10:37:13;28.30;99.90
39503;DHT22;26970;49.900;10.774;2023-08-20T10:39:39;28.10;99.90
39503;DHT22;26970;49.900;10.774;2023-08-20T10:47:24;28.10;99.90
39503;DHT22;26970;49.900;10.774;2023-08-20T10:49:53;28.30;99.90
39503;DHT22;26970;49.900;10.774;2023-08-20T10:52:22;28.30;99.90
39503;DHT22;26970;49.900;10.774;2023-08-20T10:54:50;28.30;99.90
39503;DHT22;26970;49.900;10.774;2023-08-20T10:57:16;28.20;99.90
39503;DHT22;26970;49.900;10.774;2023-08-20T10:59:42;28.30;99.90
39503;DHT22;26970;49.900;10.774;2023-08-20T11:02:12;28.40;99.90
39503;DHT22;26970;49.900;10.774;2023-08-20T11:04:40;28.60;99.90
39503;DHT22;26970;49.900;10.774;2023-08-20T11:07:06;29.10;99.90
39503;DHT22;26970;49.900;10.774;2023-08-20T11:09:33;29.30;99.90
39503;DHT22;26970;49.900;10.774;2023-08-20T11:11:59;29.80;99.90
39503;DHT22;26970;49.900;10.774;2023-08-20T11:14:24;29.80;99.90
39503;DHT22;26970;49.900;10.774;2023-08-20T11:16:50;29.80;99.90
39503;DHT22;26970;49.900;10.774;2023-08-20T11:19:23;29.80;99.90
39503;DHT22;26970;49.900;10.774;2023-08-20T11:21:49;29.60;99.90
39503;DHT22;26970;49.900;10.774;2023-08-20T11:24:16;29.30;99.90
39503;DHT22;26970;49.900;10.774;2023-08-20T11:26:43;29.30;99.90
39503;DHT22;26970;49.900;10.774;2023-08-20T11:29:10;29.10;99.90
39503;DHT22;26970;49.900;10.774;2023-08-20T11:31:37;29.30;99.90
39503;DHT22;26970;49.900;10.774;2023-08-20T11:34:04;29.40;99.90
39503;DHT22;26970;49.900;10.774;2023-08-20T11:36:30;29.70;99.90
39503;DHT22;26970;49.900;10.774;2023-08-20T11:38:56;29.80;99.90
39503;DHT22;26970;49.900;10.774;2023-08-20T11:41:23;29.90;99.90
39503;DHT22;26970;49.900;10.774;2023-08-20T11:43:49;29.80;99.90
39503;DHT22;26970;49.900;10.774;2023-08-20T11:46:18;29.60;99.90
39503;DHT22;26970;49.900;10.774;2023-08-20T11:51:26;29.40;99.90
39503;DHT22;26970;49.900;10.774;2023-08-20T11:53:52;29.50;99.90
39503;DHT22;26970;49.900;10.774;2023-08-20T11:56:17;29.80;99.90
39503;DHT22;26970;49.900;10.774;2023-08-20T11:58:43;29.90;99.90
39503;DHT22;26970;49.900;10.774;2023-08-20T12:01:08;30.00;99.90
39503;DHT22;26970;49.900;10.774;2023-08-20T12:03:36;30.20;99.90
39503;DHT22;26970;49.900;10.774;2023-08-20T12:06:17;30.30;99.90
39503;DHT22;26970;49.900;10.774;2023-08-20T12:08:43;30.40;99.90
39503;DHT22;26970;49.900;10.774;2023-08-20T12:11:09;30.10;99.90
39503;DHT22;26970;49.900;10.774;2023-08-20T12:13:35;29.80;99.90
39503;DHT22;26970;49.900;10.774;2023-08-20T12:16:00;30.00;99.90
39503;DHT22;26970;49.900;10.774;2023-08-20T12:18:26;30.10;99.90
39503;DHT22;26970;49.900;10.774;2023-08-20T12:20:51;30.10;99.90
39503;DHT22;26970;49.900;10.774;2023-08-20T12:23:17;30.00;99.90
39503;DHT22;26970;49.900;10.774;2023-08-20T12:25:43;29.90;99.90
39503;DHT22;26970;49.900;10.774;2023-08-20T12:28:09;30.00;99.90
39503;DHT22;26970;49.900;10.774;2023-08-20T12:30:34;30.10;99.90
39503;DHT22;26970;49.900;10.774;2023-08-20T12:33:04;30.50;99.90
39503;DHT22;26970;49.900;10.774;2023-08-20T12:35:30;30.70;99.90
39503;DHT22;26970;49.900;10.774;2023-08-20T12:37:55;30.80;99.90
39503;DHT22;26970;49.900;10.774;2023-08-20T12:40:21;31.00;99.90
39503;DHT22;26970;49.900;10.774;2023-08-20T12:42:47;31.30;99.90
39503;DHT22;26970;49.900;10.774;2023-08-20T12:45:12;31.30;99.90
39503;DHT22;26970;49.900;10.774;2023-08-20T12:47:38;31.20;99.90
39503;DHT22;26970;49.900;10.774;2023-08-20T12:50:04;31.40;99.90
39503;DHT22;26970;49.900;10.774;2023-08-20T12:52:31;31.40;99.90
39503;DHT22;26970;49.900;10.774;2023-08-20T12:54:57;31.40;99.90
39503;DHT22;26970;49.900;10.774;2023-08-20T12:57:22;31.40;99.90
39503;DHT22;26970;49.900;10.774;2023-08-20T12:59:48;31.30;99.90
39503;DHT22;26970;49.900;10.774;2023-08-20T13:02:13;31.30;99.90
39503;DHT22;26970;49.900;10.774;2023-08-20T13:04:39;31.40;99.90
39503;DHT22;26970;49.900;10.774;2023-08-20T13:07:06;31.40;99.90
39503;DHT22;26970;49.900;10.774;2023-08-20T13:09:31;31.50;99.90
39503;DHT22;26970;49.900;10.774;2023-08-20T13:12:01;31.60;99.90
39503;DHT22;26970;49.900;10.774;2023-08-20T13:14:29;31.60;99.90
39503;DHT22;26970;49.900;10.774;2023-08-20T13:16:55;31.30;99.90
39503;DHT22;26970;49.900;10.774;2023-08-20T13:19:22;31.10;99.90
39503;DHT22;26970;49.900;10.774;2023-08-20T13:21:47;30.80;99.90
39503;DHT22;26970;49.900;10.774;2023-08-20T13:24:13;30.80;99.90
39503;DHT22;26970;49.900;10.774;2023-08-20T13:26:39;31.10;99.90
39503;DHT22;26970;49.900;10.774;2023-08-20T13:29:05;31.40;99.90
39503;DHT22;26970;49.900;10.774;2023-08-20T13:31:30;31.50;99.90
39503;DHT22;26970;49.900;10.774;2023-08-20T13:33:56;31.40;99.90
39503;DHT22;26970;49.900;10.774;2023-08-20T13:36:21;31.60;99.90
39503;DHT22;26970;49.900;10.774;2023-08-20T13:38:47;31.50;99.90
39503;DHT22;26970;49.900;10.774;2023-08-20T13:41:12;31.70;99.90
39503;DHT22;26970;49.900;10.774;2023-08-20T13:43:38;31.80;99.90
39503;DHT22;26970;49.900;10.774;2023-08-20T13:46:04;31.80;99.90
39503;DHT22;26970;49.900;10.774;2023-08-20T13:48:29;31.70;99.90
39503;DHT22;26970;49.900;10.774;2023-08-20T13:50:55;31.70;99.90
39503;DHT22;26970;49.900;10.774;2023-08-20T13:53:21;31.60;99.90
39503;DHT22;26970;49.900;10.774;2023-08-20T13:55:46;31.70;99.90
39503;DHT22;26970;49.900;10.774;2023-08-20T13:58:12;31.70;99.90
39503;DHT22;26970;49.900;10.774;2023-08-20T14:00:37;31.70;99.90
39503;DHT22;26970;49.900;10.774;2023-08-20T14:03:04;31.60;99.90
39503;DHT22;26970;49.900;10.774;2023-08-20T14:05:29;31.70;99.90
39503;DHT22;26970;49.900;10.774;2023-08-20T14:07:55;31.70;99.90
39503;DHT22;26970;49.900;10.774;2023-08-20T14:10:21;31.90;99.90
39503;DHT22;26970;49.900;10.774;2023-08-20T14:12:47;31.90;99.90
39503;DHT22;26970;49.900;10.774;2023-08-20T14:15:13;31.90;99.90
39503;DHT22;26970;49.900;10.774;2023-08-20T14:17:38;31.90;99.90
39503;DHT22;26970;49.900;10.774;2023-08-20T14:20:05;32.00;99.90
39503;DHT22;26970;49.900;10.774;2023-08-20T14:22:32;32.00;99.90
39503;DHT22;26970;49.900;10.774;2023-08-20T14:24:57;31.90;99.90
39503;DHT22;26970;49.900;10.774;2023-08-20T14:27:23;31.90;99.90
39503;DHT22;26970;49.900;10.774;2023-08-20T14:29:48;31.90;99.90
39503;DHT22;26970;49.900;10.774;2023-08-20T14:32:14;31.90;99.90
39503;DHT22;26970;49.900;10.774;2023-08-20T14:34:39;31.90;99.90
39503;DHT22;26970;49.900;10.774;2023-08-20T14:37:05;31.90;99.90
39503;DHT22;26970;49.900;10.774;2023-08-20T14:39:31;32.00;99.90
39503;DHT22;26970;49.900;10.774;2023-08-20T14:41:58;32.00;99.90
39503;DHT22;26970;49.900;10.774;2023-08-20T14:44:24;31.80;99.90
39503;DHT22;26970;49.900;10.774;2023-08-20T14:46:49;31.60;99.90
39503;DHT22;26970;49.900;10.774;2023-08-20T14:49:16;31.60;99.90
39503;DHT22;26970;49.900;10.774;2023-08-20T14:51:41;31.50;99.90
39503;DHT22;26970;49.900;10.774;2023-08-20T14:54:07;31.40;99.90
39503;DHT22;26970;49.900;10.774;2023-08-20T14:56:32;31.50;99.90
39503;DHT22;26970;49.900;10.774;2023-08-20T14:58:58;31.50;99.90
39503;DHT22;26970;49.900;10.774;2023-08-20T15:01:24;31.50;99.90
39503;DHT22;26970;49.900;10.774;2023-08-20T15:03:49;31.40;99.90
39503;DHT22;26970;49.900;10.774;2023-08-20T15:06:15;31.40;99.90
39503;DHT22;26970;49.900;10.774;2023-08-20T15:08:41;31.40;99.90
39503;DHT22;26970;49.900;10.774;2023-08-20T15:11:06;31.40;99.90
39503;DHT22;26970;49.900;10.774;2023-08-20T15:13:32;31.40;99.90
39503;DHT22;26970;49.900;10.774;2023-08-20T15:15:58;31.40;99.90
39503;DHT22;26970;49.900;10.774;2023-08-20T15:18:24;31.40;99.90
39503;DHT22;26970;49.900;10.774;2023-08-20T15:20:57;31.40;99.90
39503;DHT22;26970;49.900;10.774;2023-08-20T15:23:23;31.20;99.90
39503;DHT22;26970;49.900;10.774;2023-08-20T15:25:51;31.10;99.90
39503;DHT22;26970;49.900;10.774;2023-08-20T15:28:18;31.10;99.90
39503;DHT22;26970;49.900;10.774;2023-08-20T15:30:44;31.10;99.90